createdAt,value
2022-11-09T00:03:35.862Z,99212.06
2022-11-09T00:06:02.724Z,99222.59
2022-11-09T00:08:29.890Z,99214.75
2022-11-09T00:11:03.413Z,99193.41
2022-11-09T00:13:30.254Z,99207.59
2022-11-09T00:16:00.540Z,99191.47
2022-11-09T00:18:27.362Z,99184.44
2022-11-09T00:20:54.877Z,99202.03
2022-11-09T00:23:23.752Z,99181.03
2022-11-09T00:25:50.672Z,99203.72
2022-11-09T00:28:17.523Z,99184.44
2022-11-09T00:30:44.312Z,99179.00
2022-11-09T00:33:12.430Z,99187.09
2022-11-09T00:35:39.854Z,99202.63
2022-11-09T00:38:06.759Z,99211.59
2022-11-09T00:40:33.716Z,99204.31
2022-11-09T00:43:00.524Z,99197.53
2022-11-09T00:45:27.313Z,99187.13
2022-11-09T00:47:54.123Z,99199.97
2022-11-09T00:50:20.913Z,99190.63
2022-11-09T00:52:48.672Z,99209.91
2022-11-09T00:55:15.549Z,99181.19
2022-11-09T00:57:42.498Z,99179.00
2022-11-09T01:00:09.911Z,99172.56
2022-11-09T01:02:36.692Z,99170.53
2022-11-09T01:05:03.739Z,99183.25
2022-11-09T01:07:33.494Z,99186.41
2022-11-09T01:10:00.393Z,99174.03
2022-11-09T01:12:27.267Z,99145.16
2022-11-09T01:14:54.132Z,99197.28
2022-11-09T01:17:21.488Z,99173.28
2022-11-09T01:19:49.629Z,99193.16
2022-11-09T01:22:17.556Z,99210.16
2022-11-09T01:24:44.333Z,99208.56
2022-11-09T01:27:11.518Z,99199.94
2022-11-09T01:29:38.287Z,99191.22
2022-11-09T01:32:05.564Z,99180.44
2022-11-09T01:34:32.482Z,99192.31
2022-11-09T01:36:59.398Z,99186.25
2022-11-09T01:39:26.268Z,99187.09
2022-11-09T01:41:53.093Z,99200.69
2022-11-09T01:44:20.745Z,99157.66
2022-11-09T01:47:26.946Z,99166.03
2022-11-09T01:49:58.928Z,99201.53
2022-11-09T01:52:37.764Z,99171.63
2022-11-09T01:55:16.883Z,99136.22
2022-11-09T01:57:53.399Z,99190.25
2022-11-09T02:00:21.042Z,99175.00
2022-11-09T02:03:03.285Z,99162.41
2022-11-09T02:05:33.857Z,99148.09
2022-11-09T02:10:37.056Z,99159.25
2022-11-09T02:13:04.337Z,99157.91
2022-11-09T02:15:31.338Z,99197.91
2022-11-09T02:17:58.821Z,99186.03
2022-11-09T02:20:27.663Z,99154.28
2022-11-09T02:22:55.405Z,99118.06
2022-11-09T02:27:47.944Z,99146.25
2022-11-09T02:30:16.112Z,99151.38
2022-11-09T02:32:43.038Z,99132.34
2022-11-09T02:35:11.136Z,99128.81
2022-11-09T02:37:40.827Z,99124.84
2022-11-09T02:40:09.564Z,99190.25
2022-11-09T02:42:36.656Z,99124.34
2022-11-09T02:45:04.267Z,99134.03
2022-11-09T02:47:31.236Z,99133.44
2022-11-09T02:49:58.273Z,99106.66
2022-11-09T02:52:25.325Z,99108.00
2022-11-09T02:54:52.185Z,99099.16
2022-11-09T02:57:19.164Z,99109.69
2022-11-09T02:59:46.202Z,99162.63
2022-11-09T03:02:13.180Z,99131.03
2022-11-09T03:04:40.135Z,99105.81
2022-11-09T03:07:08.305Z,99122.06
2022-11-09T03:09:35.276Z,99115.03
2022-11-09T03:12:22.145Z,99103.47
2022-11-09T03:14:49.109Z,99097.56
2022-11-09T03:17:19.071Z,99172.88
2022-11-09T03:19:46.923Z,99103.97
2022-11-09T03:22:13.910Z,99147.47
2022-11-09T03:24:40.844Z,99155.06
2022-11-09T03:27:08.060Z,99123.09
2022-11-09T03:29:35.188Z,99116.69
2022-11-09T03:32:02.095Z,99133.53
2022-11-09T03:34:29.041Z,99129.69
2022-11-09T03:36:55.953Z,99116.47
2022-11-09T03:39:23.116Z,99098.56
2022-11-09T03:41:50.241Z,99119.25
2022-11-09T03:44:17.188Z,99153.41
2022-11-09T03:46:44.137Z,99112.84
2022-11-09T03:51:45.802Z,99162.63
2022-11-09T03:54:12.621Z,99169.53
2022-11-09T03:56:39.471Z,99155.84
2022-11-09T03:59:06.205Z,99149.03
2022-11-09T04:01:33.027Z,99161.91
2022-11-09T04:03:59.905Z,99167.47
2022-11-09T04:06:26.759Z,99150.63
2022-11-09T04:08:53.518Z,99160.69
2022-11-09T04:11:20.354Z,99150.25
2022-11-09T04:13:47.609Z,99133.53
2022-11-09T04:16:14.394Z,99154.34
2022-11-09T04:18:41.102Z,99127.47
2022-11-09T04:21:08.118Z,99148.44
2022-11-09T04:23:34.883Z,99131.22
2022-11-09T04:26:01.657Z,99127.75
2022-11-09T04:28:28.408Z,99135.75
2022-11-09T04:30:55.093Z,99149.41
2022-11-09T04:33:22.304Z,99145.78
2022-11-09T04:35:49.172Z,99158.88
2022-11-09T04:38:15.908Z,99143.72
2022-11-09T04:40:42.621Z,99148.69
2022-11-09T04:43:13.272Z,99147.59
2022-11-09T04:45:40.674Z,99137.78
2022-11-09T04:48:08.214Z,99118.31
2022-11-09T04:50:35.021Z,99146.53
2022-11-09T04:53:28.011Z,99157.94
2022-11-09T04:55:54.896Z,99139.09
2022-11-09T04:58:24.950Z,99116.13
2022-11-09T05:00:52.235Z,99140.19
2022-11-09T05:03:19.137Z,99150.63
2022-11-09T05:05:48.564Z,99134.63
2022-11-09T05:08:15.435Z,99143.91
2022-11-09T05:10:42.179Z,99160.69
2022-11-09T05:13:12.023Z,99156.44
2022-11-09T05:15:39.369Z,99147.47
2022-11-09T05:18:06.952Z,99144.69
2022-11-09T05:20:34.594Z,99153.28
2022-11-09T05:23:20.054Z,99140.31
2022-11-09T05:25:47.601Z,99156.19
2022-11-09T05:28:14.987Z,99166.88
2022-11-09T05:30:41.842Z,99163.34
2022-11-09T05:33:08.581Z,99146.88
2022-11-09T05:35:35.459Z,99148.31
2022-11-09T05:38:02.248Z,99142.75
2022-11-09T05:40:29.301Z,99146.63
2022-11-09T05:42:56.819Z,99141.91
2022-11-09T05:45:42.017Z,99131.25
2022-11-09T05:48:09.890Z,99131.38
2022-11-09T05:50:37.537Z,99134.50
2022-11-09T05:53:04.260Z,99142.75
2022-11-09T05:55:31.105Z,99137.91
2022-11-09T05:57:58.163Z,99125.78
2022-11-09T06:00:25.998Z,99130.38
2022-11-09T06:02:52.896Z,99110.03
2022-11-09T06:05:22.921Z,99136.50
2022-11-09T06:07:49.702Z,99131.94
2022-11-09T06:10:16.496Z,99142.13
2022-11-09T06:12:43.177Z,99141.28
2022-11-09T06:15:09.958Z,99157.59
2022-11-09T06:17:36.685Z,99151.59
2022-11-09T06:20:04.578Z,99167.94
2022-11-09T06:22:31.289Z,99176.75
2022-11-09T06:24:57.964Z,99176.16
2022-11-09T06:27:24.632Z,99162.56
2022-11-09T06:29:51.350Z,99131.47
2022-11-09T06:32:17.999Z,99169.53
2022-11-09T06:34:45.032Z,99179.91
2022-11-09T06:37:11.772Z,99159.41
2022-11-09T06:39:38.477Z,99183.53
2022-11-09T06:42:05.312Z,99175.31
2022-11-09T06:44:32.118Z,99194.84
2022-11-09T06:46:58.834Z,99200.69
2022-11-09T06:49:25.495Z,99195.00
2022-11-09T06:51:52.727Z,99219.19
2022-11-09T06:54:19.489Z,99213.75
2022-11-09T06:56:46.157Z,99213.75
2022-11-09T06:59:12.902Z,99209.38
2022-11-09T07:01:39.645Z,99199.78
2022-11-09T07:04:06.458Z,99178.81
2022-11-09T07:06:33.156Z,99199.84
2022-11-09T07:08:59.912Z,99204.91
2022-11-09T07:11:26.951Z,99170.25
2022-11-09T07:13:57.378Z,99185.41
2022-11-09T07:16:24.701Z,99188.69
2022-11-09T07:18:51.423Z,99168.94
2022-11-09T07:21:18.856Z,99200.88
2022-11-09T07:23:48.035Z,99201.00
2022-11-09T07:26:15.812Z,99193.25
2022-11-09T07:28:42.913Z,99175.91
2022-11-09T07:31:10.406Z,99188.38
2022-11-09T07:33:37.411Z,99187.28
2022-11-09T07:36:05.755Z,99199.28
2022-11-09T07:38:32.721Z,99204.16
2022-11-09T07:41:00.656Z,99176.41
2022-11-09T07:43:29.153Z,99187.88
2022-11-09T07:45:56.249Z,99169.94
2022-11-09T07:48:23.231Z,99176.34
2022-11-09T07:50:50.433Z,99181.91
2022-11-09T07:53:17.625Z,99184.47
2022-11-09T07:55:44.691Z,99161.41
2022-11-09T07:58:14.074Z,99179.47
2022-11-09T08:00:42.596Z,99184.31
2022-11-09T08:03:09.893Z,99170.91
2022-11-09T08:05:37.455Z,99187.91
2022-11-09T08:08:09.027Z,99189.09
2022-11-09T08:10:36.585Z,99189.81
2022-11-09T08:13:08.640Z,99182.53
2022-11-09T08:15:36.576Z,99188.97
2022-11-09T08:18:05.869Z,99146.03
2022-11-09T08:20:33.876Z,99201.06
2022-11-09T08:23:03.961Z,99189.94
2022-11-09T08:25:33.446Z,99184.38
2022-11-09T08:28:00.284Z,99198.22
2022-11-09T08:30:27.426Z,99186.63
2022-11-09T08:32:54.171Z,99198.72
2022-11-09T08:35:23.320Z,99203.41
2022-11-09T08:37:52.182Z,99199.56
2022-11-09T08:40:24.153Z,99198.78
2022-11-09T08:42:51.763Z,99214.78
2022-11-09T08:45:21.781Z,99210.38
2022-11-09T08:47:48.729Z,99207.91
2022-11-09T08:50:16.576Z,99216.75
2022-11-09T08:52:43.308Z,99211.28
2022-11-09T08:55:13.299Z,99225.22
2022-11-09T08:57:40.124Z,99227.91
2022-11-09T09:00:07.686Z,99211.47
2022-11-09T09:02:34.639Z,99216.34
2022-11-09T09:05:02.464Z,99228.75
2022-11-09T09:07:32.161Z,99234.09
2022-11-09T09:09:58.962Z,99234.00
2022-11-09T09:12:25.692Z,99237.28
2022-11-09T09:14:52.468Z,99248.53
2022-11-09T09:17:19.424Z,99246.91
2022-11-09T09:19:49.813Z,99255.59
2022-11-09T09:22:16.939Z,99242.59
2022-11-09T09:24:43.671Z,99243.03
2022-11-09T09:27:10.364Z,99250.09
2022-11-09T09:29:37.079Z,99237.03
2022-11-09T09:32:04.687Z,99259.09
2022-11-09T09:34:31.562Z,99265.44
2022-11-09T09:36:58.401Z,99251.97
2022-11-09T09:39:25.186Z,99249.25
2022-11-09T09:41:58.196Z,99268.22
2022-11-09T09:44:33.677Z,99264.97
2022-11-09T09:47:19.124Z,99272.00
2022-11-09T09:50:14.838Z,99267.69
2022-11-09T09:52:54.229Z,99280.94
2022-11-09T09:55:36.209Z,99287.00
2022-11-09T09:58:11.181Z,99280.72
2022-11-09T10:00:39.489Z,99262.81
2022-11-09T10:03:09.418Z,99282.50
2022-11-09T10:06:25.801Z,99287.19
2022-11-09T10:09:27.153Z,99278.06
2022-11-09T10:12:02.494Z,99272.00
2022-11-09T10:14:54.920Z,99270.59
2022-11-09T10:17:33.911Z,99281.44
2022-11-09T10:20:25.342Z,99279.28
2022-11-09T10:23:22.237Z,99274.00
2022-11-09T10:26:04.671Z,99277.44
2022-11-09T10:29:14.502Z,99268.50
2022-11-09T10:31:32.960Z,99257.56
2022-11-09T10:34:12.880Z,99265.31
2022-11-09T10:36:58.819Z,99276.53
2022-11-09T10:39:29.307Z,99284.47
2022-11-09T10:41:56.000Z,99276.47
2022-11-09T10:44:22.791Z,99277.88
2022-11-09T10:47:05.096Z,99257.88
2022-11-09T10:49:32.191Z,99270.06
2022-11-09T10:51:58.960Z,99261.94
2022-11-09T10:54:30.108Z,99272.75
2022-11-09T10:57:21.837Z,99278.50
2022-11-09T10:59:51.202Z,99284.25
2022-11-09T11:02:27.230Z,99277.53
2022-11-09T11:05:16.720Z,99261.41
2022-11-09T11:07:44.895Z,99267.81
2022-11-09T11:10:18.595Z,99255.47
2022-11-09T11:13:13.987Z,99269.00
2022-11-09T11:15:42.525Z,99264.16
2022-11-09T11:18:18.910Z,99254.00
2022-11-09T11:20:48.746Z,99248.38
2022-11-09T11:23:19.135Z,99253.59
2022-11-09T11:25:52.142Z,99249.38
2022-11-09T11:28:23.932Z,99244.28
2022-11-09T11:30:51.390Z,99240.47
2022-11-09T11:33:23.328Z,99254.00
2022-11-09T11:36:14.012Z,99244.59
2022-11-09T11:38:52.183Z,99238.78
2022-11-09T11:41:37.156Z,99245.03
2022-11-09T11:44:29.391Z,99249.31
2022-11-09T11:47:39.204Z,99233.22
2022-11-09T11:50:39.963Z,99229.69
2022-11-09T11:53:31.283Z,99242.50
2022-11-09T11:56:29.557Z,99235.56
2022-11-09T11:59:10.415Z,99228.38
2022-11-09T12:01:46.231Z,99235.75
2022-11-09T12:04:44.087Z,99235.47
2022-11-09T12:07:33.128Z,99237.44
2022-11-09T12:10:17.327Z,99241.94
2022-11-09T12:13:07.822Z,99239.97
2022-11-09T12:16:00.463Z,99240.09
2022-11-09T12:19:06.691Z,99247.72
2022-11-09T12:21:52.274Z,99251.38
2022-11-09T12:24:42.811Z,99245.50
2022-11-09T12:27:33.776Z,99236.50
2022-11-09T12:30:13.260Z,99233.28
2022-11-09T12:33:03.327Z,99231.47
2022-11-09T12:35:46.042Z,99225.22
2022-11-09T12:38:31.584Z,99214.78
2022-11-09T12:41:13.132Z,99232.53
2022-11-09T12:44:00.151Z,99229.31
2022-11-09T12:46:40.363Z,99224.06
2022-11-09T12:49:25.923Z,99209.69
2022-11-09T12:51:57.941Z,99209.41
2022-11-09T12:54:26.625Z,99218.84
2022-11-09T12:57:01.636Z,99198.41
2022-11-09T12:59:30.785Z,99219.56
2022-11-09T13:01:59.467Z,99215.31
2022-11-09T13:04:28.584Z,99232.31
2022-11-09T13:07:04.479Z,99229.94
2022-11-09T13:09:44.276Z,99215.34
2022-11-09T13:12:28.454Z,99222.66
2022-11-09T13:14:58.585Z,99226.44
2022-11-09T13:17:25.282Z,99234.59
2022-11-09T13:19:56.681Z,99230.66
2022-11-09T13:22:23.402Z,99233.81
2022-11-09T13:25:01.479Z,99236.34
2022-11-09T13:27:39.169Z,99231.47
2022-11-09T13:30:24.922Z,99236.09
2022-11-09T13:33:06.762Z,99231.59
2022-11-09T13:35:42.921Z,99231.28
2022-11-09T13:38:26.587Z,99230.19
2022-11-09T13:41:03.352Z,99230.97
2022-11-09T13:43:37.269Z,99216.88
2022-11-09T13:46:34.186Z,99224.06
2022-11-09T13:49:01.435Z,99215.81
2022-11-09T13:51:37.182Z,99229.78
2022-11-09T13:54:28.292Z,99232.59
2022-11-09T13:57:02.376Z,99219.66
2022-11-09T13:59:51.840Z,99229.34
2022-11-09T14:02:24.678Z,99220.72
2022-11-09T14:04:51.433Z,99214.06
2022-11-09T14:07:32.998Z,99218.97
2022-11-09T14:10:03.621Z,99231.56
2022-11-09T14:13:01.633Z,99228.09
2022-11-09T14:15:46.204Z,99214.22
2022-11-09T14:18:31.434Z,99208.09
2022-11-09T14:21:13.385Z,99209.53
2022-11-09T14:23:40.585Z,99208.09
2022-11-09T14:26:17.712Z,99215.00
2022-11-09T14:28:44.484Z,99203.00
2022-11-09T14:31:29.998Z,99231.00
2022-11-09T14:34:06.269Z,99230.34
2022-11-09T14:36:35.171Z,99233.00
2022-11-09T14:39:05.014Z,99242.09
2022-11-09T14:41:31.853Z,99231.34
2022-11-09T14:44:00.653Z,99234.84
2022-11-09T14:46:30.872Z,99231.31
2022-11-09T14:49:02.627Z,99234.72
2022-11-09T14:51:40.671Z,99233.16
2022-11-09T14:54:13.439Z,99232.25
2022-11-09T14:59:30.427Z,99228.31
2022-11-09T15:02:04.576Z,99228.44
2022-11-09T15:04:50.556Z,99230.63
2022-11-09T15:07:21.149Z,99211.59
2022-11-09T15:09:51.691Z,99212.00
2022-11-09T15:12:21.565Z,99217.22
2022-11-09T15:14:54.775Z,99224.84
2022-11-09T15:17:27.028Z,99228.63
2022-11-09T15:20:01.605Z,99236.94
2022-11-09T15:22:59.484Z,99235.09
2022-11-09T15:25:29.906Z,99238.69
2022-11-09T15:28:25.125Z,99237.53
2022-11-09T15:30:55.021Z,99237.66
2022-11-09T15:33:39.529Z,99228.72
2022-11-09T15:36:20.496Z,99238.56
2022-11-09T15:39:00.461Z,99222.16
2022-11-09T15:41:27.984Z,99235.56
2022-11-09T15:43:55.294Z,99235.41
2022-11-09T15:46:34.183Z,99241.03
2022-11-09T15:49:11.053Z,99231.81
2022-11-09T15:51:37.851Z,99226.53
2022-11-09T15:54:04.856Z,99220.72
2022-11-09T15:56:31.594Z,99247.53
2022-11-09T15:58:58.292Z,99237.75
2022-11-09T16:01:25.507Z,99240.00
2022-11-09T16:03:52.375Z,99241.34
2022-11-09T16:06:19.484Z,99255.78
2022-11-09T16:08:50.411Z,99254.19
2022-11-09T16:11:17.885Z,99257.59
2022-11-09T16:13:45.168Z,99234.44
2022-11-09T16:16:14.727Z,99265.63
2022-11-09T16:18:42.121Z,99252.25
2022-11-09T16:21:11.594Z,99267.16
2022-11-09T16:23:38.622Z,99271.66
2022-11-09T16:26:11.979Z,99274.47
2022-11-09T16:28:40.644Z,99275.97
2022-11-09T16:31:08.127Z,99287.56
2022-11-09T16:33:35.364Z,99282.94
2022-11-09T16:36:21.778Z,99274.78
2022-11-09T16:38:54.292Z,99273.94
2022-11-09T16:41:22.125Z,99277.28
2022-11-09T16:43:53.703Z,99275.50
2022-11-09T16:46:24.836Z,99277.78
2022-11-09T16:48:53.673Z,99267.34
2022-11-09T16:51:20.754Z,99278.81
2022-11-09T16:53:48.081Z,99256.78
2022-11-09T16:56:15.007Z,99280.94
2022-11-09T16:58:42.066Z,99255.81
2022-11-09T17:01:12.390Z,99285.94
2022-11-09T17:03:40.198Z,99289.00
2022-11-09T17:06:11.492Z,99282.34
2022-11-09T17:08:39.530Z,99274.31
2022-11-09T17:11:15.446Z,99282.41
2022-11-09T17:13:42.647Z,99268.06
2022-11-09T17:16:12.521Z,99289.59
2022-11-09T17:18:42.659Z,99267.44
2022-11-09T17:21:11.811Z,99279.16
2022-11-09T17:23:39.039Z,99279.41
2022-11-09T17:26:07.723Z,99283.84
2022-11-09T17:28:40.069Z,99281.66
2022-11-09T17:31:17.552Z,99260.81
2022-11-09T17:33:46.454Z,99281.66
2022-11-09T17:36:17.017Z,99262.59
2022-11-09T17:38:47.529Z,99278.13
2022-11-09T17:41:17.112Z,99262.72
2022-11-09T17:43:45.958Z,99270.50
2022-11-09T17:46:20.379Z,99285.31
2022-11-09T17:48:50.535Z,99279.50
2022-11-09T17:51:18.832Z,99277.78
2022-11-09T17:53:47.513Z,99237.38
2022-11-09T17:56:14.700Z,99262.91
2022-11-09T17:58:44.175Z,99263.28
2022-11-09T18:01:14.553Z,99276.97
2022-11-09T18:03:42.870Z,99273.00
2022-11-09T18:06:17.304Z,99274.56
2022-11-09T18:08:58.326Z,99272.75
2022-11-09T18:11:34.763Z,99281.25
2022-11-09T18:14:02.000Z,99274.88
2022-11-09T18:16:30.951Z,99274.94
2022-11-09T18:19:02.358Z,99273.13
2022-11-09T18:21:29.772Z,99272.00
2022-11-09T18:23:57.209Z,99275.53
2022-11-09T18:26:25.072Z,99286.69
2022-11-09T18:28:52.524Z,99268.03
2022-11-09T18:31:22.805Z,99292.53
2022-11-09T18:33:51.007Z,99285.38
2022-11-09T18:36:21.799Z,99289.75
2022-11-09T18:38:54.394Z,99293.13
2022-11-09T18:41:23.610Z,99274.94
2022-11-09T18:43:52.646Z,99280.63
2022-11-09T18:46:21.609Z,99294.75
2022-11-09T18:48:53.840Z,99286.47
2022-11-09T18:51:21.482Z,99293.91
2022-11-09T18:53:50.426Z,99301.41
2022-11-09T18:56:23.587Z,99285.63
2022-11-09T18:58:54.355Z,99270.97
2022-11-09T19:01:27.969Z,99298.38
2022-11-09T19:03:59.335Z,99294.25
2022-11-09T19:06:28.191Z,99294.88
2022-11-09T19:09:14.344Z,99278.78
2022-11-09T19:11:41.716Z,99286.00
2022-11-09T19:14:10.740Z,99280.66
2022-11-09T19:16:38.511Z,99278.06
2022-11-09T19:19:06.228Z,99274.34
2022-11-09T19:21:50.902Z,99294.50
2022-11-09T19:24:21.044Z,99298.50
2022-11-09T19:26:50.135Z,99293.59
2022-11-09T19:29:18.947Z,99290.56
2022-11-09T19:31:47.597Z,99304.50
2022-11-09T19:34:18.532Z,99309.38
2022-11-09T19:36:49.275Z,99309.63
2022-11-09T19:39:17.288Z,99310.59
2022-11-09T19:41:45.019Z,99305.13
2022-11-09T19:44:19.212Z,99307.44
2022-11-09T19:46:47.795Z,99306.59
2022-11-09T19:49:15.375Z,99308.31
2022-11-09T19:51:43.352Z,99320.69
2022-11-09T19:54:12.001Z,99323.59
2022-11-09T19:56:40.482Z,99312.72
2022-11-09T19:59:08.316Z,99317.94
2022-11-09T20:01:36.163Z,99298.28
2022-11-09T20:04:09.934Z,99317.81
2022-11-09T20:06:39.533Z,99317.41
2022-11-09T20:09:07.295Z,99320.13
2022-11-09T20:11:54.047Z,99315.16
2022-11-09T20:14:22.354Z,99333.06
2022-11-09T20:16:51.139Z,99338.66
2022-11-09T20:19:18.341Z,99326.75
2022-11-09T20:21:45.379Z,99341.81
2022-11-09T20:24:13.299Z,99339.75
2022-11-09T20:26:42.895Z,99331.63
2022-11-09T20:29:11.825Z,99321.06
2022-11-09T20:31:42.000Z,99333.53
2022-11-09T20:34:10.325Z,99330.31
2022-11-09T20:36:37.591Z,99338.75
2022-11-09T20:39:08.610Z,99347.16
2022-11-09T20:41:40.342Z,99338.63
2022-11-09T20:44:07.627Z,99352.13
2022-11-09T20:46:36.734Z,99357.09
2022-11-09T20:49:04.724Z,99362.69
2022-11-09T20:51:33.242Z,99349.59
2022-11-09T20:54:06.605Z,99362.22
2022-11-09T20:56:34.982Z,99369.72
2022-11-09T20:59:02.465Z,99374.09
2022-11-09T21:01:30.052Z,99367.91
2022-11-09T21:03:57.779Z,99381.63
2022-11-09T21:06:24.998Z,99390.13
2022-11-09T21:08:54.756Z,99384.31
2022-11-09T21:11:24.243Z,99389.78
2022-11-09T21:13:52.858Z,99375.94
2022-11-09T21:16:21.624Z,99383.34
2022-11-09T21:18:49.545Z,99363.41
2022-11-09T21:21:20.167Z,99370.81
2022-11-09T21:24:06.002Z,99374.44
2022-11-09T21:26:51.911Z,99383.88
2022-11-09T21:29:40.022Z,99381.41
2022-11-09T21:32:08.003Z,99369.41
2022-11-09T21:34:36.968Z,99365.50
2022-11-09T21:37:05.431Z,99390.50
2022-11-09T21:39:32.973Z,99382.25
2022-11-09T21:42:00.432Z,99381.25
2022-11-09T21:44:31.760Z,99380.28
2022-11-09T21:46:59.251Z,99389.19
2022-11-09T21:49:25.979Z,99391.34
2022-11-09T21:51:53.150Z,99384.94
2022-11-09T21:54:20.812Z,99399.13
2022-11-09T21:56:48.261Z,99390.63
2022-11-09T21:59:15.165Z,99396.59
2022-11-09T22:01:42.120Z,99390.41
2022-11-09T22:04:09.594Z,99381.66
2022-11-09T22:06:39.111Z,99384.09
2022-11-09T22:09:07.630Z,99373.53
2022-11-09T22:11:53.900Z,99390.28
2022-11-09T22:14:39.172Z,99396.09
2022-11-09T22:17:08.780Z,99371.44
2022-11-09T22:19:56.351Z,99410.06
2022-11-09T22:22:23.251Z,99409.22
2022-11-09T22:24:52.511Z,99419.38
2022-11-09T22:27:19.317Z,99410.44
2022-11-09T22:29:46.087Z,99390.00
2022-11-09T22:32:12.865Z,99422.28
2022-11-09T22:34:39.580Z,99427.19
2022-11-09T22:37:07.292Z,99431.78
2022-11-09T22:39:34.002Z,99433.84
2022-11-09T22:42:00.725Z,99402.56
2022-11-09T22:44:27.511Z,99434.63
2022-11-09T22:46:54.333Z,99431.09
2022-11-09T22:49:21.080Z,99438.41
2022-11-09T22:51:47.802Z,99415.63
2022-11-09T22:54:14.468Z,99443.03
2022-11-09T22:56:41.271Z,99446.03
2022-11-09T22:59:08.304Z,99447.53
2022-11-09T23:01:35.194Z,99412.03
2022-11-09T23:04:02.013Z,99445.81
2022-11-09T23:06:29.348Z,99449.50
2022-11-09T23:08:56.155Z,99440.50
2022-11-09T23:11:25.029Z,99451.56
2022-11-09T23:13:53.497Z,99453.84
2022-11-09T23:16:21.630Z,99457.38
2022-11-09T23:18:54.771Z,99456.88
2022-11-09T23:21:27.743Z,99446.66
2022-11-09T23:23:57.700Z,99447.38
2022-11-09T23:26:26.562Z,99444.09
2022-11-09T23:28:54.015Z,99430.50
2022-11-09T23:31:24.952Z,99454.47
2022-11-09T23:33:54.573Z,99439.50
2022-11-09T23:36:22.732Z,99457.50
2022-11-09T23:38:49.961Z,99401.72
2022-11-09T23:41:17.592Z,99454.56
2022-11-09T23:43:48.927Z,99465.88
2022-11-09T23:46:18.174Z,99459.50
2022-11-09T23:48:45.137Z,99463.59
2022-11-09T23:51:12.205Z,99446.13
2022-11-09T23:53:39.282Z,99446.13
2022-11-09T23:56:08.897Z,99440.91
2022-11-09T23:58:36.354Z,99466.75
